Pemba Airport (Tanzania)

Airport
ICAO code: 
HTPE
IATA Code: 
PMA
Summary
ICAO Region: 
AFI
Territory: 
Location: 
Chake-Chake, Zanzibar
Serving: 
Pemba Island
Elevation: 
80 ft
Coordinates: 
Aerial View: 
5° 15' 29.988" S, 39° 48' 39.996" E
Metar
Observation
HTPE 190400Z 00000KT 9999 -TS FEW014 FEW016CB BKN070 26/25 Q1013
Station
Pemba / Karume Airport
Date/Time
2022-01-19 04:00:00
Wind direction
Wind speed
00 kts
Lowest cloud amount
few clouds
Temperature
26°C
Dew point
25°C
Humidity
94%
QNH
1013 hPa
Weather condition
light thunderstorm

Pemba Airport is an airport in the Zanzibar Archipelago located on Pemba Island. It is also known as Karume Airport and Wawi Airport.

Climatology

Tropical rainforest climate (Köppen climate classification Af)

Runways

Designator Length Width Surface Rops
2/20 1525 30 ASP No/No
Airport map: 
Aerial View: 

SKYbrary Partners:

Safety knowledge contributed by: